createdAt,value
2022-08-10T00:00:44.414Z,5.18
2022-08-10T00:01:31.553Z,5.03
2022-08-10T00:02:18.584Z,4.97
2022-08-10T00:03:07.873Z,5.07
2022-08-10T00:03:54.704Z,4.62
2022-08-10T00:04:41.527Z,4.85
2022-08-10T00:05:28.484Z,4.55
2022-08-10T00:06:30.784Z,4.90
2022-08-10T00:07:18.405Z,5.30
2022-08-10T00:08:05.743Z,4.95
2022-08-10T00:08:52.776Z,4.78
2022-08-10T00:09:51.375Z,5.20
2022-08-10T00:10:39.264Z,5.10
2022-08-10T00:11:26.545Z,5.07
2022-08-10T00:12:13.384Z,4.62
2022-08-10T00:13:00.475Z,4.80
2022-08-10T00:13:47.475Z,4.80
2022-08-10T00:14:34.321Z,4.97
2022-08-10T00:15:53.141Z,5.43
2022-08-10T00:16:29.217Z,5.18
2022-08-10T00:17:16.244Z,4.90
2022-08-10T00:18:03.223Z,4.60
2022-08-10T00:18:50.064Z,5.15
2022-08-10T00:20:03.645Z,4.80
2022-08-10T00:20:43.702Z,4.75
2022-08-10T00:21:30.505Z,4.85
2022-08-10T00:22:17.424Z,5.07
2022-08-10T00:23:04.286Z,4.75
2022-08-10T00:23:51.125Z,5.47
2022-08-10T00:24:41.448Z,5.03
2022-08-10T00:25:30.114Z,4.75
2022-08-10T00:26:17.004Z,5.00
2022-08-10T00:27:51.974Z,5.00
2022-08-10T00:28:12.444Z,5.35
2022-08-10T00:28:59.224Z,4.68
2022-08-10T00:29:46.051Z,5.25
2022-08-10T00:30:32.903Z,4.85
2022-08-10T00:31:19.743Z,4.87
2022-08-10T00:32:06.924Z,5.28
2022-08-10T00:32:53.814Z,5.57
2022-08-10T00:33:40.715Z,5.10
2022-08-10T00:34:28.593Z,4.87
2022-08-10T00:35:15.485Z,5.10
2022-08-10T00:36:02.633Z,5.05
2022-08-10T00:36:49.604Z,4.90
2022-08-10T00:37:36.495Z,5.20
2022-08-10T00:38:23.734Z,5.32
2022-08-10T00:39:13.660Z,4.93
2022-08-10T00:40:03.878Z,5.40
2022-08-10T00:40:50.824Z,4.93
2022-08-10T00:41:37.765Z,4.80
2022-08-10T00:42:24.635Z,4.90
2022-08-10T00:43:11.346Z,5.00
2022-08-10T00:43:58.173Z,5.25
2022-08-10T00:44:48.214Z,4.90
2022-08-10T00:45:35.891Z,5.07
2022-08-10T00:46:22.767Z,5.28
2022-08-10T00:47:22.738Z,4.80
2022-08-10T00:48:17.464Z,4.72
2022-08-10T00:49:04.304Z,4.97
2022-08-10T00:49:51.312Z,5.47
2022-08-10T00:50:38.114Z,4.80
2022-08-10T00:51:47.984Z,5.25
2022-08-10T00:52:32.007Z,4.95
2022-08-10T00:53:19.014Z,5.20
2022-08-10T00:54:06.805Z,5.00
2022-08-10T00:55:10.842Z,5.43
2022-08-10T00:57:12.797Z,4.97
2022-08-10T00:57:16.804Z,5.55
2022-08-10T00:58:52.384Z,5.18
2022-08-10T00:59:59.505Z,5.20
2022-08-10T01:00:48.071Z,5.10
2022-08-10T01:02:08.442Z,5.18
2022-08-10T01:02:41.840Z,4.93
2022-08-10T01:04:39.851Z,4.85
2022-08-10T01:04:59.864Z,5.12
2022-08-10T01:05:52.444Z,5.37
2022-08-10T01:06:52.914Z,5.37
2022-08-10T01:08:03.964Z,5.40
2022-08-10T01:09:00.176Z,5.22
2022-08-10T01:09:56.945Z,5.22
2022-08-10T01:12:39.279Z,5.47
2022-08-10T01:12:41.460Z,4.93
2022-08-10T01:14:10.475Z,5.30
2022-08-10T01:15:19.399Z,5.15
2022-08-10T01:16:14.686Z,5.30
2022-08-10T01:17:11.934Z,5.07
2022-08-10T01:18:07.023Z,5.00
2022-08-10T01:18:57.955Z,4.97
2022-08-10T01:19:47.314Z,5.03
2022-08-10T01:20:40.188Z,5.10
2022-08-10T01:21:39.584Z,5.00
2022-08-10T01:22:50.107Z,5.30
2022-08-10T01:23:46.690Z,5.00
2022-08-10T01:25:21.177Z,5.05
2022-08-10T01:26:31.546Z,5.05
2022-08-10T01:27:56.244Z,5.28
2022-08-10T01:28:49.434Z,4.82
2022-08-10T01:29:52.407Z,5.12
2022-08-10T01:30:39.880Z,5.07
2022-08-10T01:31:29.573Z,5.20
2022-08-10T01:32:22.924Z,4.97
2022-08-10T01:33:10.507Z,5.20
2022-08-10T01:34:02.441Z,5.32
2022-08-10T01:34:59.934Z,5.18
2022-08-10T01:35:56.703Z,4.95
2022-08-10T01:36:52.473Z,5.37
2022-08-10T01:37:51.990Z,5.15
2022-08-10T01:38:46.094Z,5.43
2022-08-10T01:39:45.395Z,5.10
2022-08-10T01:40:36.345Z,5.65
2022-08-10T01:41:25.883Z,5.20
2022-08-10T01:42:15.524Z,5.30
2022-08-10T01:43:08.523Z,5.20
2022-08-10T01:44:09.965Z,5.53
2022-08-10T01:44:58.158Z,5.18
2022-08-10T01:45:47.751Z,5.37
2022-08-10T01:46:35.413Z,5.10
2022-08-10T01:47:43.934Z,5.15
2022-08-10T01:48:40.553Z,5.12
2022-08-10T01:49:28.163Z,5.60
2022-08-10T01:50:29.459Z,5.20
2022-08-10T01:51:23.805Z,5.40
2022-08-10T01:52:10.974Z,5.10
2022-08-10T01:53:16.364Z,5.37
2022-08-10T01:54:12.817Z,5.35
2022-08-10T01:55:00.246Z,5.40
2022-08-10T01:55:50.063Z,5.00
2022-08-10T01:56:40.224Z,4.85
2022-08-10T01:57:29.545Z,5.10
2022-08-10T01:58:18.364Z,5.45
2022-08-10T01:59:11.045Z,5.68
2022-08-10T02:00:02.630Z,5.75
2022-08-10T02:00:51.464Z,5.65
2022-08-10T02:01:40.908Z,5.30
2022-08-10T02:02:29.993Z,4.90
2022-08-10T02:03:19.264Z,4.97
2022-08-10T02:04:09.758Z,5.35
2022-08-10T02:05:44.843Z,5.72
2022-08-10T02:06:34.454Z,5.20
2022-08-10T02:07:24.584Z,5.50
2022-08-10T02:08:13.704Z,5.10
2022-08-10T02:09:06.365Z,4.80
2022-08-10T02:09:55.864Z,5.20
2022-08-10T02:10:44.373Z,4.93
2022-08-10T02:12:07.689Z,5.55
2022-08-10T02:12:38.414Z,5.62
2022-08-10T02:13:26.994Z,5.10
2022-08-10T02:14:15.223Z,5.32
2022-08-10T02:15:08.982Z,5.10
2022-08-10T02:16:01.802Z,4.95
2022-08-10T02:16:51.814Z,4.90
2022-08-10T02:18:00.937Z,5.47
2022-08-10T02:18:48.894Z,5.30
2022-08-10T02:19:36.903Z,5.50
2022-08-10T02:20:26.037Z,5.82
2022-08-10T02:21:12.965Z,5.07
2022-08-10T02:22:35.380Z,5.43
2022-08-10T02:23:21.948Z,5.40
2022-08-10T02:24:13.085Z,5.07
2022-08-10T02:25:00.568Z,4.82
2022-08-10T02:25:47.994Z,5.55
2022-08-10T02:26:35.452Z,5.05
2022-08-10T02:27:23.994Z,4.75
2022-08-10T02:28:27.310Z,5.30
2022-08-10T02:29:17.903Z,5.05
2022-08-10T02:30:05.964Z,4.45
2022-08-10T02:30:54.975Z,4.93
2022-08-10T02:31:45.944Z,4.82
2022-08-10T02:32:38.501Z,4.90
2022-08-10T02:33:27.127Z,4.60
2022-08-10T02:34:14.683Z,4.90
2022-08-10T02:35:03.983Z,4.70
2022-08-10T02:35:54.078Z,4.82
2022-08-10T02:36:45.344Z,4.60
2022-08-10T02:37:33.076Z,5.03
2022-08-10T02:38:58.158Z,5.15
2022-08-10T02:39:42.356Z,4.57
2022-08-10T02:45:12.666Z,4.85
2022-08-10T02:45:14.106Z,5.15
2022-08-10T02:45:18.087Z,4.60
2022-08-10T02:45:29.225Z,4.82
2022-08-10T02:46:00.744Z,4.85
2022-08-10T02:46:51.119Z,4.78
2022-08-10T02:47:52.269Z,5.05
2022-08-10T02:48:43.074Z,4.90
2022-08-10T02:50:31.563Z,4.87
2022-08-10T02:52:06.322Z,4.70
2022-08-10T02:52:47.284Z,4.90
2022-08-10T02:54:07.513Z,4.70
2022-08-10T02:55:17.597Z,4.65
2022-08-10T02:56:19.224Z,4.93
2022-08-10T02:58:44.657Z,4.60
2022-08-10T02:59:40.103Z,4.40
2022-08-10T03:00:27.653Z,4.62
2022-08-10T03:01:17.844Z,4.43
2022-08-10T03:02:06.725Z,4.47
2022-08-10T03:02:54.704Z,4.55
2022-08-10T03:03:46.105Z,4.60
2022-08-10T03:04:55.706Z,4.50
2022-08-10T03:05:45.999Z,4.40
2022-08-10T03:06:39.485Z,4.75
2022-08-10T03:07:43.006Z,4.80
2022-08-10T03:08:34.943Z,4.87
2022-08-10T03:09:23.224Z,4.60
2022-08-10T03:10:25.293Z,4.45
2022-08-10T03:12:37.892Z,4.47
2022-08-10T03:12:38.309Z,4.40
2022-08-10T03:13:34.886Z,4.65
2022-08-10T03:14:22.164Z,5.00
2022-08-10T03:15:15.677Z,4.80
2022-08-10T03:16:04.105Z,4.62
2022-08-10T03:16:53.574Z,5.00
2022-08-10T03:17:40.851Z,4.68
2022-08-10T03:18:28.175Z,4.70
2022-08-10T03:20:33.614Z,4.53
2022-08-10T03:20:36.869Z,4.07
2022-08-10T03:21:27.543Z,4.60
2022-08-10T03:22:15.793Z,4.95
2022-08-10T03:23:11.045Z,4.57
2022-08-10T03:24:01.713Z,4.68
2022-08-10T03:24:49.094Z,4.87
2022-08-10T03:25:36.455Z,4.30
2022-08-10T03:26:23.743Z,4.90
2022-08-10T03:27:11.384Z,4.93
2022-08-10T03:27:59.773Z,4.28
2022-08-10T03:28:46.784Z,4.82
2022-08-10T03:30:29.601Z,5.07
2022-08-10T03:30:40.924Z,4.90
2022-08-10T03:31:28.604Z,4.70
2022-08-10T03:32:16.107Z,5.18
2022-08-10T03:33:06.934Z,4.70
2022-08-10T03:33:54.874Z,4.87
2022-08-10T03:34:42.023Z,4.50
2022-08-10T03:35:29.334Z,4.53
2022-08-10T03:36:43.119Z,4.95
2022-08-10T03:37:23.082Z,4.93
2022-08-10T03:38:09.907Z,4.90
2022-08-10T03:38:56.854Z,5.30
2022-08-10T03:39:43.830Z,4.80
2022-08-10T03:40:46.090Z,4.90
2022-08-10T03:41:41.615Z,4.60
2022-08-10T03:42:38.531Z,4.93
2022-08-10T03:43:26.513Z,5.15
2022-08-10T03:44:13.974Z,4.80
2022-08-10T03:45:02.627Z,4.45
2022-08-10T03:45:54.771Z,4.57
2022-08-10T03:46:45.654Z,5.03
2022-08-10T03:47:34.674Z,4.50
2022-08-10T03:48:22.365Z,4.87
2022-08-10T03:49:09.836Z,4.47
2022-08-10T03:49:57.346Z,4.85
2022-08-10T03:50:52.457Z,4.97
2022-08-10T03:51:40.023Z,4.45
2022-08-10T03:52:27.178Z,5.10
2022-08-10T03:53:25.069Z,4.40
2022-08-10T03:54:21.493Z,5.10
2022-08-10T03:55:08.863Z,4.80
2022-08-10T03:56:28.463Z,4.82
2022-08-10T03:57:03.354Z,4.90
2022-08-10T03:57:50.647Z,4.90
2022-08-10T03:58:37.495Z,4.70
2022-08-10T03:59:24.363Z,5.00
2022-08-10T04:00:12.814Z,5.18
2022-08-10T04:00:59.965Z,4.90
2022-08-10T04:02:52.387Z,4.85
2022-08-10T04:02:54.776Z,4.80
2022-08-10T04:03:42.366Z,4.80
2022-08-10T04:04:29.223Z,4.55
2022-08-10T04:05:16.563Z,5.20
2022-08-10T04:06:04.103Z,5.50
2022-08-10T04:06:54.634Z,4.87
2022-08-10T04:07:43.933Z,4.70
2022-08-10T04:08:30.903Z,4.70
2022-08-10T04:09:17.656Z,4.80
2022-08-10T04:10:05.273Z,4.97
2022-08-10T04:10:52.105Z,4.80
2022-08-10T04:11:40.795Z,4.70
2022-08-10T04:12:27.659Z,4.82
2022-08-10T04:13:14.586Z,4.55
2022-08-10T04:14:01.516Z,5.15
2022-08-10T04:14:51.499Z,4.40
2022-08-10T04:15:39.613Z,4.57
2022-08-10T04:16:26.384Z,5.22
2022-08-10T04:17:14.159Z,4.75
2022-08-10T04:18:04.447Z,4.40
2022-08-10T04:18:52.923Z,5.03
2022-08-10T04:19:46.354Z,4.47
2022-08-10T04:20:45.073Z,4.57
2022-08-10T04:21:38.333Z,5.03
2022-08-10T04:22:26.395Z,4.65
2022-08-10T04:23:16.612Z,4.78
2022-08-10T04:24:07.444Z,4.80
2022-08-10T04:24:58.953Z,4.75
2022-08-10T04:25:46.093Z,4.65
2022-08-10T04:26:33.123Z,4.62
2022-08-10T04:27:20.384Z,4.82
2022-08-10T04:28:08.928Z,4.85
2022-08-10T04:28:56.005Z,4.70
2022-08-10T04:29:43.604Z,5.00
2022-08-10T04:30:32.265Z,4.80
2022-08-10T04:31:19.864Z,5.25
2022-08-10T04:32:08.623Z,4.65
2022-08-10T04:32:56.014Z,4.30
2022-08-10T04:33:47.643Z,4.97
2022-08-10T04:34:35.826Z,5.57
2022-08-10T04:35:24.333Z,4.30
2022-08-10T04:36:11.893Z,4.70
2022-08-10T04:37:03.355Z,4.80
2022-08-10T04:37:53.472Z,4.65
2022-08-10T04:38:41.324Z,4.50
2022-08-10T04:39:28.179Z,4.95
2022-08-10T04:40:28.475Z,5.12
2022-08-10T04:41:16.994Z,4.55
2022-08-10T04:42:04.415Z,4.50
2022-08-10T04:42:51.372Z,4.60
2022-08-10T04:43:38.533Z,4.60
2022-08-10T04:44:25.314Z,4.47
2022-08-10T04:45:14.287Z,4.30
2022-08-10T04:46:01.142Z,4.57
2022-08-10T04:46:58.183Z,4.72
2022-08-10T04:47:57.456Z,4.57
2022-08-10T04:48:59.416Z,4.43
2022-08-10T04:49:55.065Z,4.45
2022-08-10T04:50:43.885Z,4.50
2022-08-10T04:51:35.645Z,4.55
2022-08-10T04:52:22.425Z,5.18
2022-08-10T04:53:12.223Z,4.82
2022-08-10T04:54:03.025Z,4.80
2022-08-10T04:54:53.054Z,4.35
2022-08-10T04:55:39.854Z,4.60
2022-08-10T04:56:31.449Z,4.60
2022-08-10T04:57:18.964Z,4.80
2022-08-10T04:58:05.783Z,4.82
2022-08-10T04:58:52.756Z,4.80
2022-08-10T04:59:39.705Z,4.55
2022-08-10T05:00:26.602Z,4.70
2022-08-10T05:01:13.453Z,5.07
2022-08-10T05:02:30.574Z,4.60
2022-08-10T05:03:07.504Z,4.57
2022-08-10T05:04:37.776Z,4.85
2022-08-10T05:05:01.104Z,4.95
2022-08-10T05:05:48.268Z,4.70
2022-08-10T05:06:35.655Z,4.40
2022-08-10T05:07:22.473Z,4.72
2022-08-10T05:08:10.233Z,4.60
2022-08-10T05:08:57.075Z,4.72
2022-08-10T05:10:02.190Z,5.12
2022-08-10T05:10:51.024Z,5.05
2022-08-10T05:11:37.947Z,5.10
2022-08-10T05:12:24.996Z,4.97
2022-08-10T05:13:11.934Z,4.82
2022-08-10T05:13:58.765Z,4.43
2022-08-10T05:14:45.535Z,4.60
2022-08-10T05:15:32.285Z,4.50
2022-08-10T05:16:30.731Z,4.57
2022-08-10T05:17:20.036Z,4.65
2022-08-10T05:18:09.575Z,4.75
2022-08-10T05:18:56.894Z,5.37
2022-08-10T05:20:02.159Z,5.12
2022-08-10T05:20:51.107Z,5.10
2022-08-10T05:22:02.937Z,4.75
2022-08-10T05:22:46.324Z,4.87
2022-08-10T05:23:33.163Z,5.00
2022-08-10T05:24:19.914Z,4.85
2022-08-10T05:25:16.655Z,4.90
2022-08-10T05:26:03.575Z,4.57
2022-08-10T05:27:00.479Z,4.80
2022-08-10T05:27:57.775Z,4.57
2022-08-10T05:28:44.763Z,4.60
2022-08-10T05:29:31.544Z,4.90
2022-08-10T05:30:20.504Z,4.60
2022-08-10T05:31:07.323Z,5.00
2022-08-10T05:31:54.623Z,5.30
2022-08-10T05:32:57.354Z,4.62
2022-08-10T05:33:46.963Z,5.25
2022-08-10T05:34:33.755Z,5.03
2022-08-10T05:35:21.365Z,5.25
2022-08-10T05:36:09.174Z,4.50
2022-08-10T05:36:56.424Z,5.15
2022-08-10T05:38:10.520Z,4.43
2022-08-10T05:38:52.044Z,4.87
2022-08-10T05:39:39.721Z,5.15
2022-08-10T05:40:28.135Z,5.32
2022-08-10T05:41:16.603Z,5.20
2022-08-10T05:42:03.704Z,5.22
2022-08-10T05:42:50.744Z,5.20
2022-08-10T05:43:37.683Z,5.68
2022-08-10T05:44:24.853Z,5.47
2022-08-10T05:45:25.684Z,5.22
2022-08-10T05:46:16.705Z,5.62
2022-08-10T05:47:12.589Z,5.30
2022-08-10T05:48:54.136Z,5.37
2022-08-10T05:49:06.564Z,5.10
2022-08-10T05:49:53.855Z,5.50
2022-08-10T05:50:40.894Z,5.25
2022-08-10T05:51:28.905Z,5.62
2022-08-10T05:52:16.683Z,5.45
2022-08-10T05:53:59.538Z,5.15
2022-08-10T05:54:17.413Z,5.45
2022-08-10T05:55:04.733Z,5.78
2022-08-10T05:55:51.595Z,5.12
2022-08-10T05:56:55.549Z,4.90
2022-08-10T05:57:45.164Z,5.28
2022-08-10T05:58:31.974Z,5.40
2022-08-10T06:00:35.341Z,5.10
2022-08-10T06:00:36.193Z,4.70
2022-08-10T06:01:26.345Z,4.55
2022-08-10T06:02:31.137Z,4.82
2022-08-10T06:03:27.134Z,5.65
2022-08-10T06:04:18.784Z,4.90
2022-08-10T06:05:11.067Z,4.82
2022-08-10T06:05:59.214Z,5.10
2022-08-10T06:06:47.774Z,4.93
2022-08-10T06:07:35.943Z,5.05
2022-08-10T06:08:26.842Z,5.18
2022-08-10T06:09:15.663Z,5.05
2022-08-10T06:10:03.834Z,5.20
2022-08-10T06:12:23.233Z,5.10
2022-08-10T06:12:26.843Z,5.70
2022-08-10T06:13:59.507Z,5.65
2022-08-10T06:14:59.765Z,5.12
2022-08-10T06:15:51.714Z,6.05
2022-08-10T06:16:39.724Z,5.57
2022-08-10T06:17:27.913Z,5.45
2022-08-10T06:18:15.672Z,5.78
2022-08-10T06:19:02.725Z,5.90
2022-08-10T06:19:50.134Z,5.82
2022-08-10T06:20:37.008Z,5.80
2022-08-10T06:21:24.312Z,5.12
2022-08-10T06:22:11.553Z,5.50
2022-08-10T06:23:02.366Z,5.90
2022-08-10T06:23:50.565Z,5.35
2022-08-10T06:25:04.621Z,5.90
2022-08-10T06:26:10.806Z,5.80
2022-08-10T06:26:54.914Z,5.85
2022-08-10T06:27:42.077Z,5.57
2022-08-10T06:28:31.503Z,6.05
2022-08-10T06:29:19.145Z,5.72
2022-08-10T06:30:20.887Z,5.45
2022-08-10T06:31:08.283Z,5.80
2022-08-10T06:31:56.232Z,5.30
2022-08-10T06:32:43.088Z,5.32
2022-08-10T06:33:31.924Z,5.20
2022-08-10T06:34:26.576Z,5.80
2022-08-10T06:35:13.495Z,5.43
2022-08-10T06:36:01.259Z,5.50
2022-08-10T06:36:48.428Z,5.00
2022-08-10T06:37:36.611Z,5.37
2022-08-10T06:38:25.204Z,5.50
2022-08-10T06:39:32.336Z,5.50
2022-08-10T06:40:20.409Z,5.40
2022-08-10T06:41:19.986Z,5.10
2022-08-10T06:42:17.982Z,5.00
2022-08-10T06:43:08.730Z,5.00
2022-08-10T06:44:07.649Z,5.40
2022-08-10T06:45:07.983Z,4.95
2022-08-10T06:46:08.347Z,5.32
2022-08-10T06:47:49.186Z,5.45
2022-08-10T06:48:39.233Z,5.70
2022-08-10T06:49:26.078Z,5.40
2022-08-10T06:50:45.498Z,5.05
2022-08-10T06:51:35.235Z,5.07
2022-08-10T06:52:22.603Z,5.03
2022-08-10T06:53:16.649Z,5.07
2022-08-10T06:54:06.954Z,5.12
2022-08-10T06:54:56.173Z,4.78
2022-08-10T06:55:55.064Z,5.25
2022-08-10T06:57:01.653Z,4.60
2022-08-10T06:57:59.982Z,4.72
2022-08-10T06:58:54.323Z,4.93
2022-08-10T06:59:45.243Z,5.32
2022-08-10T07:00:34.528Z,4.70
2022-08-10T07:01:27.471Z,5.07
2022-08-10T07:02:22.195Z,4.50
2022-08-10T07:03:12.903Z,4.25
2022-08-10T07:04:07.155Z,5.10
2022-08-10T07:05:03.515Z,5.37
2022-08-10T07:05:52.103Z,4.55
2022-08-10T07:06:43.705Z,5.20
2022-08-10T07:07:33.559Z,4.72
2022-08-10T07:08:22.101Z,4.72
2022-08-10T07:09:11.822Z,4.68
2022-08-10T07:10:02.446Z,4.55
2022-08-10T07:10:49.644Z,4.87
2022-08-10T07:11:36.869Z,4.78
2022-08-10T07:12:25.945Z,4.72
2022-08-10T07:14:15.597Z,4.32
2022-08-10T07:14:24.503Z,5.07
2022-08-10T07:15:13.040Z,4.50
2022-08-10T07:16:00.897Z,4.55
2022-08-10T07:16:48.073Z,4.50
2022-08-10T07:17:39.554Z,4.32
2022-08-10T07:18:27.155Z,4.90
2022-08-10T07:19:17.493Z,4.53
2022-08-10T07:20:07.326Z,5.15
2022-08-10T07:20:56.592Z,4.90
2022-08-10T07:21:46.723Z,5.45
2022-08-10T07:23:27.112Z,4.57
2022-08-10T07:23:58.582Z,5.10
2022-08-10T07:24:47.831Z,4.70
2022-08-10T07:25:34.984Z,4.60
2022-08-10T07:26:22.632Z,4.70
2022-08-10T07:27:09.723Z,4.65
2022-08-10T07:28:01.515Z,4.43
2022-08-10T07:28:51.595Z,4.60
2022-08-10T07:29:54.579Z,4.15
2022-08-10T07:30:42.567Z,4.20
2022-08-10T07:31:54.911Z,4.75
2022-08-10T07:32:37.307Z,4.60
2022-08-10T07:33:25.318Z,3.92
2022-08-10T07:34:21.701Z,4.12
2022-08-10T07:35:17.804Z,4.57
2022-08-10T07:36:05.563Z,4.47
2022-08-10T07:36:52.905Z,4.85
2022-08-10T07:37:41.403Z,4.22
2022-08-10T07:38:30.804Z,4.55
2022-08-10T07:40:03.908Z,4.47
2022-08-10T07:40:25.744Z,4.75
2022-08-10T07:41:12.804Z,4.65
2022-08-10T07:42:07.365Z,4.10
2022-08-10T07:42:58.443Z,4.20
2022-08-10T07:43:46.146Z,4.22
2022-08-10T07:44:33.584Z,5.05
2022-08-10T07:45:20.745Z,5.12
2022-08-10T07:46:12.400Z,4.50
2022-08-10T07:47:04.725Z,4.25
2022-08-10T07:48:07.826Z,5.07
2022-08-10T07:49:01.191Z,5.60
2022-08-10T07:49:48.820Z,4.68
2022-08-10T07:50:38.201Z,4.90
2022-08-10T07:51:25.420Z,5.07
2022-08-10T07:52:12.283Z,4.62
2022-08-10T07:53:02.184Z,4.20
2022-08-10T07:53:52.426Z,4.43
2022-08-10T07:54:42.363Z,4.12
2022-08-10T07:56:04.512Z,4.30
2022-08-10T07:56:49.035Z,4.40
2022-08-10T07:57:40.276Z,4.45
2022-08-10T07:58:30.755Z,4.30
2022-08-10T07:59:40.943Z,4.65
2022-08-10T08:00:31.256Z,4.65
2022-08-10T08:01:18.884Z,4.62
2022-08-10T08:02:08.993Z,4.00
2022-08-10T08:02:58.025Z,4.20
2022-08-10T08:03:45.923Z,4.93
2022-08-10T08:04:53.287Z,4.65
2022-08-10T08:05:58.239Z,4.25
2022-08-10T08:06:48.295Z,4.10
2022-08-10T08:07:37.093Z,4.28
2022-08-10T08:08:24.633Z,4.10
2022-08-10T08:09:12.385Z,3.87
2022-08-10T08:10:01.134Z,4.50
2022-08-10T08:10:49.039Z,4.22
2022-08-10T08:11:37.345Z,4.20
2022-08-10T08:12:25.208Z,4.30
2022-08-10T08:13:13.122Z,4.30
2022-08-10T08:14:01.211Z,4.03
2022-08-10T08:14:48.143Z,4.20
2022-08-10T08:16:20.295Z,4.28
2022-08-10T08:16:48.304Z,4.20
2022-08-10T08:17:36.408Z,4.43
2022-08-10T08:18:25.442Z,4.15
2022-08-10T08:19:37.974Z,4.10
2022-08-10T08:20:20.064Z,4.15
2022-08-10T08:21:16.038Z,4.30
2022-08-10T08:24:05.725Z,3.97
2022-08-10T08:24:10.567Z,4.40
2022-08-10T08:24:36.408Z,4.30
2022-08-10T08:25:24.475Z,4.35
2022-08-10T08:26:11.958Z,4.50
2022-08-10T08:27:03.891Z,4.00
2022-08-10T08:27:53.907Z,3.85
2022-08-10T08:28:42.115Z,3.75
2022-08-10T08:29:29.924Z,3.80
2022-08-10T08:30:16.745Z,3.87
2022-08-10T08:31:15.073Z,4.43
2022-08-10T08:32:04.074Z,3.65
2022-08-10T08:32:51.524Z,3.80
2022-08-10T08:33:41.705Z,4.03
2022-08-10T08:34:31.354Z,4.28
2022-08-10T08:35:19.473Z,4.57
2022-08-10T08:36:07.489Z,3.83
2022-08-10T08:36:59.221Z,4.00
2022-08-10T08:38:33.327Z,3.90
2022-08-10T08:38:55.283Z,4.20
2022-08-10T08:39:44.188Z,3.87
2022-08-10T08:40:37.244Z,4.03
2022-08-10T08:41:54.195Z,3.80
2022-08-10T08:43:08.630Z,3.92
2022-08-10T08:44:13.253Z,4.15
2022-08-10T08:45:27.693Z,4.03
2022-08-10T08:46:44.885Z,4.03
2022-08-10T08:48:03.557Z,3.67
2022-08-10T08:50:04.560Z,3.95
2022-08-10T08:50:45.865Z,4.72
2022-08-10T08:52:08.284Z,4.10
2022-08-10T08:54:01.140Z,3.97
2022-08-10T08:56:00.761Z,4.00
2022-08-10T08:56:31.334Z,4.53
2022-08-10T08:57:49.203Z,4.15
2022-08-10T08:58:57.003Z,3.72
2022-08-10T08:59:57.876Z,3.92
2022-08-10T09:00:52.564Z,3.55
2022-08-10T09:01:50.665Z,3.40
2022-08-10T09:02:56.991Z,3.42
2022-08-10T09:03:46.716Z,3.75
2022-08-10T09:04:41.387Z,3.37
2022-08-10T09:05:58.642Z,3.40
2022-08-10T09:06:47.222Z,3.95
2022-08-10T09:08:00.769Z,3.70
2022-08-10T09:09:15.683Z,3.80
2022-08-10T09:10:22.068Z,3.80
2022-08-10T09:11:33.584Z,3.90
2022-08-10T09:12:38.859Z,3.78
2022-08-10T09:13:35.308Z,3.80
2022-08-10T09:14:49.132Z,5.15
2022-08-10T09:15:45.234Z,3.60
2022-08-10T09:16:45.837Z,3.90
2022-08-10T09:19:07.364Z,3.87
2022-08-10T09:19:59.586Z,3.72
2022-08-10T09:21:10.374Z,3.67
2022-08-10T09:23:20.934Z,3.65
2022-08-10T09:24:54.976Z,3.90
2022-08-10T09:25:48.151Z,3.70
2022-08-10T09:26:42.010Z,3.58
2022-08-10T09:27:49.171Z,4.05
2022-08-10T09:28:40.704Z,3.70
2022-08-10T09:29:33.586Z,3.67
2022-08-10T09:30:38.509Z,3.70
2022-08-10T09:31:27.943Z,4.00
2022-08-10T09:36:13.996Z,3.40
2022-08-10T09:36:22.956Z,3.72
2022-08-10T09:36:24.977Z,3.40
2022-08-10T09:36:33.050Z,3.70
2022-08-10T09:38:03.235Z,3.60
2022-08-10T09:40:56.818Z,3.65
2022-08-10T09:40:59.728Z,3.75
2022-08-10T09:41:47.005Z,3.40
2022-08-10T09:43:21.938Z,4.03
2022-08-10T09:44:18.604Z,3.58
2022-08-10T09:45:24.094Z,4.00
2022-08-10T09:46:16.896Z,3.80
2022-08-10T09:47:09.785Z,3.70
2022-08-10T09:48:21.313Z,3.70
2022-08-10T09:49:53.240Z,3.72
2022-08-10T09:51:34.529Z,3.80
2022-08-10T09:52:02.433Z,3.62
2022-08-10T09:53:13.903Z,3.45
2022-08-10T09:54:38.264Z,3.50
2022-08-10T09:56:17.550Z,3.90
2022-08-10T09:57:49.445Z,3.70
2022-08-10T09:59:59.708Z,3.83
2022-08-10T10:00:12.723Z,3.80
2022-08-10T10:01:56.388Z,3.60
2022-08-10T10:03:17.710Z,3.50
2022-08-10T10:04:11.429Z,4.05
2022-08-10T10:05:34.096Z,3.80
2022-08-10T10:06:26.085Z,4.07
2022-08-10T10:07:22.113Z,3.90
2022-08-10T10:08:43.310Z,3.58
2022-08-10T10:10:07.864Z,3.75
2022-08-10T10:11:00.886Z,3.83
2022-08-10T10:12:07.738Z,3.35
2022-08-10T10:13:57.361Z,3.60
2022-08-10T10:15:24.026Z,3.90
2022-08-10T10:16:31.281Z,3.45
2022-08-10T10:17:21.822Z,3.28
2022-08-10T10:18:47.744Z,3.80
2022-08-10T10:19:41.156Z,3.78
2022-08-10T10:20:38.114Z,3.62
2022-08-10T10:21:55.851Z,3.50
2022-08-10T10:23:03.885Z,3.37
2022-08-10T10:24:21.291Z,3.47
2022-08-10T10:25:20.971Z,3.67
2022-08-10T10:26:43.164Z,3.65
2022-08-10T10:27:36.766Z,3.67
2022-08-10T10:28:23.794Z,3.50
2022-08-10T10:29:58.141Z,3.55
2022-08-10T10:30:38.577Z,3.72
2022-08-10T10:31:59.197Z,3.78
2022-08-10T10:33:03.593Z,3.42
2022-08-10T10:34:00.074Z,3.65
2022-08-10T10:34:59.784Z,3.55
2022-08-10T10:35:57.794Z,3.50
2022-08-10T10:36:46.226Z,3.70
2022-08-10T10:38:01.887Z,3.45
2022-08-10T10:38:41.955Z,3.70
2022-08-10T10:39:29.711Z,3.33
2022-08-10T10:40:17.356Z,3.30
2022-08-10T10:41:22.735Z,3.62
2022-08-10T10:42:42.268Z,3.67
2022-08-10T10:43:32.686Z,3.70
2022-08-10T10:44:42.269Z,3.42
2022-08-10T10:45:41.658Z,3.47
2022-08-10T10:46:51.573Z,3.65
2022-08-10T10:48:03.613Z,3.47
2022-08-10T10:49:19.173Z,3.70
2022-08-10T10:50:15.513Z,3.60
2022-08-10T10:51:28.213Z,3.40
2022-08-10T10:52:39.365Z,3.95
2022-08-10T10:53:30.035Z,4.30
2022-08-10T10:54:25.454Z,3.80
2022-08-10T10:55:34.960Z,3.47
2022-08-10T10:57:10.213Z,3.80
2022-08-10T10:58:02.188Z,3.90
2022-08-10T10:59:55.539Z,3.50
2022-08-10T11:00:26.476Z,3.47
2022-08-10T11:01:22.370Z,4.03
2022-08-10T11:03:00.262Z,4.45
2022-08-10T11:04:37.763Z,3.37
2022-08-10T11:06:02.291Z,3.78
2022-08-10T11:07:23.756Z,3.50
2022-08-10T11:08:28.643Z,3.53
2022-08-10T11:10:05.561Z,3.75
2022-08-10T11:10:47.035Z,3.60
2022-08-10T11:12:00.922Z,4.07
2022-08-10T11:13:06.863Z,3.40
2022-08-10T11:14:28.861Z,3.37
2022-08-10T11:15:25.293Z,3.42
2022-08-10T11:16:54.493Z,3.15
2022-08-10T11:17:51.994Z,3.65
2022-08-10T11:19:18.881Z,3.35
2022-08-10T11:20:24.868Z,3.28
2022-08-10T11:21:41.646Z,3.45
2022-08-10T11:22:56.767Z,3.25
2022-08-10T11:24:47.560Z,3.53
2022-08-10T11:25:32.879Z,3.20
2022-08-10T11:26:19.933Z,3.75
2022-08-10T11:27:25.780Z,3.50
2022-08-10T11:28:22.538Z,3.35
2022-08-10T11:29:41.502Z,3.53
2022-08-10T11:30:46.458Z,3.25
2022-08-10T11:31:42.173Z,3.20
2022-08-10T11:32:34.823Z,3.95
2022-08-10T11:34:48.150Z,3.30
2022-08-10T11:35:23.967Z,3.42
2022-08-10T11:36:26.387Z,3.12
2022-08-10T11:37:22.476Z,3.47
2022-08-10T11:38:32.901Z,3.55
2022-08-10T11:39:24.037Z,3.72
2022-08-10T11:40:37.241Z,3.30
2022-08-10T11:42:08.884Z,3.20
2022-08-10T11:42:42.684Z,3.47
2022-08-10T11:43:31.494Z,3.60
2022-08-10T11:44:26.074Z,3.20
2022-08-10T11:45:17.142Z,3.20
2022-08-10T11:46:19.377Z,3.25
2022-08-10T11:47:18.736Z,3.33
2022-08-10T11:48:52.953Z,3.33
2022-08-10T11:49:52.428Z,3.35
2022-08-10T11:50:52.169Z,3.20
2022-08-10T11:51:56.054Z,3.87
2022-08-10T11:53:04.194Z,3.53
2022-08-10T11:54:10.704Z,3.50
2022-08-10T11:55:02.413Z,3.10
2022-08-10T11:55:55.217Z,3.75
2022-08-10T11:56:51.064Z,3.20
2022-08-10T11:57:53.883Z,3.20
2022-08-10T11:59:02.113Z,3.20
2022-08-10T12:00:08.777Z,3.50
2022-08-10T12:01:02.785Z,3.35
2022-08-10T12:01:51.395Z,3.40
2022-08-10T12:02:46.421Z,3.17
2022-08-10T12:03:35.074Z,3.47
2022-08-10T12:04:22.365Z,3.40
2022-08-10T12:05:21.890Z,3.20
2022-08-10T12:06:54.165Z,3.25
2022-08-10T12:10:02.790Z,3.72
2022-08-10T12:10:03.973Z,3.53
2022-08-10T12:10:11.058Z,3.20
2022-08-10T12:11:00.276Z,2.80
2022-08-10T12:11:49.846Z,3.20
2022-08-10T12:12:40.314Z,3.17
2022-08-10T12:14:22.956Z,3.08
2022-08-10T12:15:16.149Z,3.30
2022-08-10T12:16:22.739Z,3.55
2022-08-10T12:17:27.563Z,3.03
2022-08-10T12:18:24.536Z,3.22
2022-08-10T12:19:21.155Z,3.28
2022-08-10T12:20:11.115Z,3.30
2022-08-10T12:21:01.173Z,3.50
2022-08-10T12:22:03.568Z,3.72
2022-08-10T12:23:15.931Z,3.20
2022-08-10T12:24:12.106Z,3.20
2022-08-10T12:25:07.334Z,3.10
2022-08-10T12:25:57.436Z,3.08
2022-08-10T12:27:24.246Z,3.15
2022-08-10T12:28:50.426Z,3.30
2022-08-10T12:30:05.043Z,3.15
2022-08-10T12:30:57.152Z,3.15
2022-08-10T12:32:18.146Z,3.30
2022-08-10T12:33:26.810Z,3.28
2022-08-10T12:34:27.672Z,3.28
2022-08-10T12:36:08.268Z,3.03
2022-08-10T12:37:15.523Z,3.70
2022-08-10T12:38:02.346Z,3.62
2022-08-10T12:39:02.508Z,3.85
2022-08-10T12:40:33.919Z,3.37